WetterOnline ( https://www.wetteronline.de )

Wetter aktuell Bonn

Aktuelles Wetter: Roleber (162m)

6-stündlich | Neueste Meldungen
Ortszeit Temperatur Wetter
Mi, 24.04. 14:00 23.9° C wolkig
Mi, 24.04. 8:00 14.4° C bedeckt
Mi, 24.04. 2:00 15.0° C bedeckt
Di, 23.04. 20:00 18.4° C bewölkt
Di, 23.04. 14:00 18.3° C leicht bewölkt
Di, 23.04. 8:00 9.4° C wolkig
Di, 23.04. 2:00 11.0° C wolkenlos
Mo, 22.04. 20:00 19.8° C wolkig
Ortszeit Temperatur Wetter
Mi, 24.04. 18:10 22.6° C leichter Regen
Mi, 24.04. 18:00 23.3° C bewölkt
Mi, 24.04. 17:50 23.3° C bewölkt
Mi, 24.04. 17:40 23.8° C bewölkt
Mi, 24.04. 17:30 24.0° C wolkig
Mi, 24.04. 17:20 24.0° C wolkig
Mi, 24.04. 17:00 24.2° C leicht bewölkt
Mi, 24.04. 16:30 24.2° C wolkig
Mi, 24.04. 16:00 25.0° C leicht bewölkt
Mi, 24.04. 15:30 24.2° C wolkig
Ortszeit Relative Feuchte Sichtweite
Mi, 24.04. 14:00 41% 40 km
Mi, 24.04. 8:00 72% 25 km
Mi, 24.04. 2:00 63% 30 km
Di, 23.04. 20:00 53% 35 km
Di, 23.04. 14:00 50% 29 km
Di, 23.04. 8:00 69% 45 km
Di, 23.04. 2:00 53% 70 km
Mo, 22.04. 20:00 38% 50 km
Ortszeit Relative Feuchte Sichtweite
Mi, 24.04. 18:10 40% -
Mi, 24.04. 18:00 38% 55 km
Mi, 24.04. 17:50 38% -
Mi, 24.04. 17:40 37% -
Mi, 24.04. 17:30 36% 30 km
Mi, 24.04. 17:20 36% -
Mi, 24.04. 17:00 38% 35 km
Mi, 24.04. 16:30 38% 28 km
Mi, 24.04. 16:00 36% 50 km
Mi, 24.04. 15:30 38% 40 km
Ortszeit Niederschlagsmenge Niederschlagsart
Mi, 24.04. 14:00 0.1 l/m2 in 6 Std. Regen
Mi, 24.04. 8:00 0.0 l/m2 in 12 Std. -
Mi, 24.04. 2:00 0.0 l/m2 in 6 Std. -
Di, 23.04. 20:00 0.0 l/m2 in 12 Std. -
Di, 23.04. 14:00 0.0 l/m2 in 6 Std. -
Di, 23.04. 8:00 0.0 l/m2 in 12 Std. -
Di, 23.04. 2:00 0.0 l/m2 in 6 Std. -
Mo, 22.04. 20:00 0.0 l/m2 in 12 Std. -
Ortszeit Niederschlagsmenge Niederschlagsart
Mi, 24.04. 18:10 keine Meldung -
Mi, 24.04. 18:00 0.0 l/m2 in 1 Std. -
Mi, 24.04. 17:50 keine Meldung -
Mi, 24.04. 17:40 keine Meldung -
Mi, 24.04. 17:30 0.0 l/m2 in 1 Std. -
Mi, 24.04. 17:20 keine Meldung -
Mi, 24.04. 17:00 0.0 l/m2 in 1 Std. -
Mi, 24.04. 16:30 0.0 l/m2 in 1 Std. -
Mi, 24.04. 16:00 0.0 l/m2 in 1 Std. -
Mi, 24.04. 15:30 0.0 l/m2 in 1 Std. -
Ortszeit Stärke Spitze Richtung
km/h Bft. km/h Grad Sektor
Mi, 24.04. 14:00 15 3 31 170° S
Mi, 24.04. 8:00 4 1 14 110° O
Mi, 24.04. 2:00 7 2 29 110° O
Di, 23.04. 20:00 9 2 37 160° S
Di, 23.04. 14:00 11 2 35 100° O
Di, 23.04. 8:00 4 1 14 110° O
Di, 23.04. 2:00 7 2 33 90° O
Mo, 22.04. 20:00 11 2 36 100° O
Ortszeit Stärke Spitze Richtung
km/h Bft. km/h Grad Sektor
Mi, 24.04. 18:10 9 2 - 180° S
Mi, 24.04. 18:00 13 3 28 190° S
Mi, 24.04. 17:50 13 3 - 190° S
Mi, 24.04. 17:40 11 2 - 200° S
Mi, 24.04. 17:30 18 3 29 180° S
Mi, 24.04. 17:20 18 3 - 180° S
Mi, 24.04. 17:00 14 3 32 190° S
Mi, 24.04. 16:30 19 3 31 160° S
Mi, 24.04. 16:00 13 3 30 150° SO
Mi, 24.04. 15:30 14 3 25 180° S
Ortszeit Untergrenze Bedeckung Gattung
total tief tief mittel hoch
Mi, 24.04. 14:00 3300 m 8/8 7/8 - - -
Mi, 24.04. 8:00 3000 m 8/8 8/8 - - -
Mi, 24.04. 2:00 2400 m 8/8 8/8 - - -
Di, 23.04. 20:00 3600 m 8/8 7/8 - - -
Di, 23.04. 14:00 8100 m 8/8 0/8 - - -
Di, 23.04. 8:00 8400 m 8/8 0/8 - - -
Di, 23.04. 2:00 7800 m 0/8 0/8 - - -
Mo, 22.04. 20:00 8700 m 7/8 0/8 - - -
Ortszeit Bedeckungsgrad in Achtel und Wolkenuntergrenze
Mi, 24.04. 18:10 6(2100m) 7(2400m) 7(3900m)
Mi, 24.04. 18:00 7(2100m) 7(2400m) 7(4200m)
Mi, 24.04. 17:50 7(2100m) 7(2400m)
Mi, 24.04. 17:40 7(2100m) 7(9000m)
Mi, 24.04. 17:30 2(2100m) 4(8400m) 7(9000m)
Mi, 24.04. 17:20 2(2100m) 4(8400m) 7(9000m)
Mi, 24.04. 17:00 8(9000m) 8(9000m)
Mi, 24.04. 16:30 8(8700m)
Mi, 24.04. 16:00 8(8400m)
Mi, 24.04. 15:30 8(8100m)
Ortszeit Luftdruck NN (hPa) Tendenz (hPa in 3 Std.)
Mi, 24.04. 14:00 1001 - 0,7
Mi, 24.04. 8:00 1000 + 1,3
Mi, 24.04. 2:00 998 + 0,3
Di, 23.04. 20:00 997 - 0,4
Di, 23.04. 14:00 999 - 0,7
Di, 23.04. 8:00 1001 - 1,0
Di, 23.04. 2:00 1004 - 1,3
Mo, 22.04. 20:00 1004 - 1,3
Ortszeit Luftdruck NN (hPa) Tendenz (hPa in 3 Std.)
Mi, 24.04. 18:10 999 keine Meldung
Mi, 24.04. 18:00 999 - 1,6
Mi, 24.04. 17:50 999 keine Meldung
Mi, 24.04. 17:40 999 keine Meldung
Mi, 24.04. 17:30 999 - 1,4
Mi, 24.04. 17:20 999 keine Meldung
Mi, 24.04. 17:00 999 - 1,2
Mi, 24.04. 16:30 1000 - 1,0
Mi, 24.04. 16:00 1000 - 1,2
Mi, 24.04. 15:30 1000 - 1,1
Ortszeit Schneehöhe (cm)
Mi, 24.04. 14:00 0
Mi, 24.04. 8:00 0
Mi, 24.04. 2:00 0
Di, 23.04. 20:00 0
Di, 23.04. 14:00 0
Di, 23.04. 8:00 0
Di, 23.04. 2:00 0
Mo, 22.04. 20:00 0
Ortszeit Schneehöhe (cm)
Mi, 24.04. 18:10 0
Mi, 24.04. 18:00 0
Mi, 24.04. 17:50 0
Mi, 24.04. 17:40 0
Mi, 24.04. 17:30 0
Mi, 24.04. 17:20 0
Mi, 24.04. 17:00 0
Mi, 24.04. 16:30 0
Mi, 24.04. 16:00 0
Mi, 24.04. 15:30 0
Link zu dieser Seite / Seite empfehlen

Das Wetter in ...